Time;durP1;ratioP1;P1;durP2;ratioP2;P2;SDS_P1;SDS_P2;PMS_P1;PMS_P2;Temp;Humidity;BMP_temperature;BMP_pressure;BME280_temperature;BME280_humidity;BME280_pressure;Samples;Min_cycle;Max_cycle;Signal;HPM_P1;HPM_P2
2022/05/23 00:01:13;;;;;;;2.40;1.50;;;;;;;10.02;69.10;96396.87;107320;1274;37805;-74
2022/05/23 00:03:45;;;;;;;1.80;1.40;;;;;;;10.06;69.19;96394.65;107271;1275;62288;-74
2022/05/23 00:06:21;;;;;;;2.20;1.40;;;;;;;10.09;69.15;96395.95;107412;1275;33031;-74
2022/05/23 00:08:52;;;;;;;5.20;3.30;;;;;;;10.16;69.59;96385.66;107260;1274;41764;-75
2022/05/23 00:11:23;;;;;;;5.90;3.10;;;;;;;10.35;69.85;96391.59;107343;1274;37342;-75
2022/05/23 00:13:54;;;;;;;4.60;2.20;;;;;;;10.51;69.52;96391.83;107272;1275;74344;-75
2022/05/23 00:16:27;;;;;;;2.60;1.50;;;;;;;10.58;69.22;96387.36;107295;1274;37706;-74
2022/05/23 00:18:58;;;;;;;2.60;1.50;;;;;;;10.53;69.27;96391.91;107392;1274;39856;-74
2022/05/23 00:21:29;;;;;;;4.60;2.10;;;;;;;10.44;69.35;96389.75;107285;1274;36912;-74
2022/05/23 00:24:00;;;;;;;4.70;2.50;;;;;;;10.46;69.56;96388.23;107298;1274;43141;-74
2022/05/23 00:26:31;;;;;;;2.20;1.50;;;;;;;10.45;69.61;96388.67;107304;1274;39003;-74
2022/05/23 00:29:02;;;;;;;2.70;1.60;;;;;;;10.37;69.48;96393.09;107282;1273;57553;-74
2022/05/23 00:31:33;;;;;;;3.70;2.00;;;;;;;10.36;69.58;96399.20;107291;1274;48259;-75
2022/05/23 00:36:52;;;;;;;2.40;1.50;;;;;;;10.32;69.62;96395.81;107314;1274;41103;-75
2022/05/23 00:39:23;;;;;;;2.40;1.50;;;;;;;10.31;69.61;96398.48;107284;1274;52083;-74
2022/05/23 00:44:43;;;;;;;;;;;;;;;10.36;69.74;96396.87;107178;1275;61833;-74
2022/05/23 00:47:21;;;;;;;2.90;1.50;;;;;;;10.27;69.89;96395.02;107348;1274;31321;-74
2022/05/23 00:49:52;;;;;;;2.90;2.40;;;;;;;10.18;70.15;96401.06;107237;1276;47666;-75
2022/05/23 00:52:28;;;;;;;4.10;2.00;;;;;;;10.15;70.50;96402.15;107288;1274;64293;-75
2022/05/23 00:55:02;;;;;;;3.80;2.00;;;;;;;10.06;70.53;96400.64;107311;1274;36843;-75
2022/05/23 00:57:37;;;;;;;3.30;1.50;;;;;;;10.11;70.70;96402.49;107253;1274;44984;-74
2022/05/23 01:00:11;;;;;;;4.80;2.10;;;;;;;10.02;70.77;96399.77;107365;1274;44078;-74
2022/05/23 01:02:47;;;;;;;4.10;1.90;;;;;;;9.97;71.00;96401.30;107328;1275;43414;-74
2022/05/23 01:05:18;;;;;;;2.70;1.40;;;;;;;9.93;71.17;96398.85;107311;1275;43871;-74
2022/05/23 01:07:49;;;;;;;3.40;1.90;;;;;;;9.88;71.22;96401.02;107327;1274;41206;-74
2022/05/23 01:10:21;;;;;;;4.40;2.00;;;;;;;9.87;71.48;96405.16;107320;1274;52974;-74
2022/05/23 01:12:52;;;;;;;2.70;1.90;;;;;;;9.88;71.61;96405.85;107253;1275;58429;-75
2022/05/23 01:15:25;;;;;;;4.30;2.00;;;;;;;9.87;71.61;96410.14;107333;1275;40347;-74
2022/05/23 01:17:57;;;;;;;6.00;3.00;;;;;;;9.91;71.80;96415.40;107351;1274;42661;-74
2022/05/23 01:20:29;;;;;;;5.20;3.10;;;;;;;9.93;72.03;96413.63;107351;1274;34118;-74
2022/05/23 01:23:13;;;;;;;5.80;3.80;;;;;;;10.04;72.33;96415.23;107272;1274;72917;-74
2022/05/23 01:25:46;;;;;;;6.90;3.00;;;;;;;10.13;72.12;96416.24;107234;1276;31470;-74
2022/05/23 01:28:18;;;;;;;7.10;3.20;;;;;;;10.16;72.04;96416.40;107391;1274;31703;-74
2022/05/23 01:30:50;;;;;;;5.60;3.30;;;;;;;10.22;72.05;96414.77;107381;1274;47352;-74
2022/05/23 01:33:24;;;;;;;6.80;3.70;;;;;;;10.26;72.00;96417.26;107422;1274;33381;-74
2022/05/23 01:35:57;;;;;;;9.00;4.70;;;;;;;10.30;72.13;96417.40;107222;1274;63045;-74
2022/05/23 01:38:29;;;;;;;6.90;3.80;;;;;;;10.35;72.14;96411.61;107294;1274;41616;-74
2022/05/23 01:41:01;;;;;;;5.10;3.10;;;;;;;10.44;71.99;96412.21;107259;1274;43991;-74
2022/05/23 01:43:31;;;;;;;6.90;3.80;;;;;;;10.50;72.00;96412.73;107283;1274;32419;-74
2022/05/23 01:46:03;;;;;;;5.30;3.50;;;;;;;10.52;71.98;96414.23;107284;1274;48942;-74
2022/05/23 01:48:34;;;;;;;5.60;3.70;;;;;;;10.52;71.90;96412.21;107258;1274;57376;-74
2022/05/23 01:51:06;;;;;;;7.90;4.50;;;;;;;10.53;71.79;96407.22;107189;1274;35405;-74
2022/05/23 01:53:37;;;;;;;9.00;4.60;;;;;;;10.53;71.62;96401.17;107273;1274;45941;-74
2022/05/23 01:56:08;;;;;;;8.00;4.00;;;;;;;10.56;71.62;96398.61;107304;1274;37771;-74
2022/05/23 02:01:28;;;;;;;7.30;4.20;;;;;;;10.51;71.78;96396.81;107337;1274;39780;-74
2022/05/23 02:04:01;;;;;;;7.60;4.50;;;;;;;10.47;71.95;96393.36;107341;1274;36750;-74
2022/05/23 02:06:32;;;;;;;6.60;4.40;;;;;;;10.44;71.95;96392.46;107335;1274;34726;-74
2022/05/23 02:09:04;;;;;;;5.10;4.00;;;;;;;10.39;72.13;96392.59;107211;1274;60155;-74
2022/05/23 02:11:35;;;;;;;6.90;4.10;;;;;;;10.33;72.16;96394.14;107337;1274;56508;-74
2022/05/23 02:14:05;;;;;;;6.00;4.10;;;;;;;10.26;72.34;96394.06;107361;1274;35112;-74
2022/05/23 02:16:36;;;;;;;8.20;4.30;;;;;;;10.21;72.56;96394.36;107325;1274;43284;-74
2022/05/23 02:19:13;;;;;;;5.30;4.00;;;;;;;10.19;72.52;96401.20;107348;1274;33260;-74
2022/05/23 02:21:44;;;;;;;6.00;3.70;;;;;;;10.20;72.55;96400.20;107328;1275;54106;-74
2022/05/23 02:24:14;;;;;;;7.60;4.90;;;;;;;10.20;72.69;96402.56;107333;1274;50712;-74
2022/05/23 02:26:46;;;;;;;7.10;4.10;;;;;;;10.23;72.67;96405.00;107343;1274;49494;-74
2022/05/23 02:29:18;;;;;;;5.20;4.10;;;;;;;10.29;72.74;96403.73;107236;1274;60494;-74
2022/05/23 02:31:51;;;;;;;7.30;4.10;;;;;;;10.35;72.72;96402.50;107386;1274;58251;-74
2022/05/23 02:34:23;;;;;;;6.90;4.00;;;;;;;10.38;72.69;96401.30;107271;1274;65168;-74
2022/05/23 02:36:54;;;;;;;6.30;3.30;;;;;;;10.40;72.66;96402.06;107362;1274;38499;-75
2022/05/23 02:39:25;;;;;;;5.00;3.60;;;;;;;10.44;72.70;96397.48;107298;1274;65499;-74
2022/05/23 02:41:56;;;;;;;5.40;3.40;;;;;;;10.49;72.66;96402.41;107232;1274;69944;-74
2022/05/23 02:44:27;;;;;;;6.90;3.70;;;;;;;10.55;72.65;96404.04;107330;1274;32569;-74
2022/05/23 02:46:58;;;;;;;5.80;3.40;;;;;;;10.58;72.61;96401.63;107274;1274;47496;-75
2022/05/23 02:49:29;;;;;;;5.60;3.60;;;;;;;10.61;72.51;96404.33;107371;1274;33226;-74
2022/05/23 02:52:00;;;;;;;10.20;4.90;;;;;;;10.63;72.47;96401.97;107268;1276;45724;-74
2022/05/23 02:54:31;;;;;;;6.10;4.10;;;;;;;10.63;72.54;96400.75;107373;1274;30865;-74
2022/05/23 02:57:03;;;;;;;7.00;4.50;;;;;;;10.62;72.64;96397.85;107249;1274;68841;-74
2022/05/23 02:59:34;;;;;;;5.00;3.60;;;;;;;10.63;72.56;96395.99;107315;1274;39666;-75
2022/05/23 03:04:54;;;;;;;5.90;4.10;;;;;;;10.62;72.70;96392.12;107317;1274;45350;-75
2022/05/23 03:07:25;;;;;;;7.60;4.60;;;;;;;10.61;72.75;96390.13;107407;1274;40108;-75
2022/05/23 03:09:55;;;;;;;7.00;4.30;;;;;;;10.58;72.89;96390.12;107395;1274;54474;-73
2022/05/23 03:12:28;;;;;;;6.60;4.90;;;;;;;10.56;73.04;96392.90;107431;1274;38519;-75
2022/05/23 03:14:59;;;;;;;6.50;5.00;;;;;;;10.51;73.06;96395.96;107386;1274;51082;-74
2022/05/23 03:17:30;;;;;;;8.40;5.00;;;;;;;10.49;73.13;96395.73;107377;1274;50291;-74
2022/05/23 03:20:01;;;;;;;5.60;4.20;;;;;;;10.43;73.01;96390.98;107437;1274;33901;-74
2022/05/23 03:28:09;;;;;;;8.00;4.00;;;;;;;10.42;72.95;96393.89;107275;1274;75720;-74
2022/05/23 03:30:40;;;;;;;7.00;4.20;;;;;;;10.47;72.83;96395.38;107371;1274;37590;-74
2022/05/23 03:33:12;;;;;;;4.80;3.70;;;;;;;10.50;72.67;96402.81;107371;1274;34062;-74
2022/05/23 03:35:43;;;;;;;5.30;3.70;;;;;;;10.52;72.43;96406.17;107321;1274;48685;-74
2022/05/23 03:38:17;;;;;;;7.50;4.10;;;;;;;10.57;72.46;96408.04;107362;1274;31538;-74
2022/05/23 03:40:48;;;;;;;7.10;3.70;;;;;;;10.58;72.16;96411.75;107417;1274;38935;-74
2022/05/23 03:43:20;;;;;;;5.80;2.90;;;;;;;10.59;72.07;96412.63;107293;1276;56980;-74
2022/05/23 03:45:50;;;;;;;6.30;3.70;;;;;;;10.63;71.97;96417.56;107355;1274;43528;-74
2022/05/23 03:48:21;;;;;;;5.20;3.50;;;;;;;10.65;71.94;96416.59;107380;1274;49381;-75
2022/05/23 03:50:52;;;;;;;6.00;4.00;;;;;;;10.70;71.93;96416.73;107297;1274;41088;-75
2022/05/23 03:53:23;;;;;;;7.50;3.80;;;;;;;10.67;71.71;96416.49;107294;1274;47855;-75
2022/05/23 03:55:55;;;;;;;4.10;3.50;;;;;;;10.65;71.77;96413.81;107279;1274;34744;-74
2022/05/23 03:58:29;;;;;;;6.20;3.70;;;;;;;10.66;71.60;96414.61;107283;1274;48268;-75
2022/05/23 04:01:09;;;;;;;5.40;4.00;;;;;;;10.60;71.36;96410.71;107333;1274;46530;-74
2022/05/23 04:03:40;;;;;;;4.60;3.30;;;;;;;10.45;71.41;96414.96;107351;1274;36927;-74
2022/05/23 04:06:11;;;;;;;5.90;3.30;;;;;;;10.38;71.74;96418.63;107251;1276;38621;-74
2022/05/23 04:08:42;;;;;;;5.80;3.40;;;;;;;10.32;71.96;96417.59;107341;1274;39372;-74
2022/05/23 04:11:13;;;;;;;5.30;3.90;;;;;;;10.26;72.02;96420.60;107313;1274;66042;-74
2022/05/23 04:13:44;;;;;;;5.80;3.90;;;;;;;10.25;71.91;96419.13;107323;1274;39054;-74
2022/05/23 04:16:15;;;;;;;4.30;3.10;;;;;;;10.11;71.85;96417.48;107329;1274;33188;-74
2022/05/23 04:18:46;;;;;;;7.10;3.50;;;;;;;9.96;71.98;96418.58;107233;1275;46315;-74
2022/05/23 04:21:18;;;;;;;5.70;3.20;;;;;;;9.88;72.15;96415.42;107409;1274;54064;-74
2022/05/23 04:23:49;;;;;;;6.90;3.90;;;;;;;9.92;72.41;96415.59;107390;1274;57669;-74
2022/05/23 04:26:20;;;;;;;6.00;3.70;;;;;;;9.94;72.29;96418.06;107418;1274;41325;-74
2022/05/23 04:28:51;;;;;;;5.20;3.30;;;;;;;10.07;72.14;96421.92;107389;1274;40560;-74
2022/05/23 04:31:22;;;;;;;5.10;3.40;;;;;;;10.17;72.19;96424.07;107286;1274;49904;-74
2022/05/23 04:36:41;;;;;;;5.00;3.40;;;;;;;10.48;71.56;96417.52;107358;1274;55433;-74
2022/05/23 04:39:13;;;;;;;4.30;3.20;;;;;;;10.73;71.48;96414.89;107365;1274;32136;-74
2022/05/23 04:41:44;;;;;;;5.40;3.60;;;;;;;10.88;71.17;96413.29;107283;1274;41509;-74
2022/05/23 04:44:15;;;;;;;6.60;3.90;;;;;;;11.09;70.86;96413.60;107348;1274;34086;-74
2022/05/23 04:49:49;;;;;;;3.20;2.50;;;;;;;11.98;69.46;96407.45;107335;1274;36205;-74
2022/05/23 04:52:23;;;;;;;4.90;3.10;;;;;;;12.13;68.31;96404.98;107363;1274;48198;-74
2022/05/23 04:54:56;;;;;;;6.60;3.60;;;;;;;12.23;68.25;96406.23;107373;1274;44711;-74
2022/05/23 04:57:27;;;;;;;5.80;3.50;;;;;;;12.46;67.69;96406.17;107280;1274;47676;-73
2022/05/23 04:59:58;;;;;;;5.60;3.70;;;;;;;12.68;67.64;96403.79;107287;1274;53154;-74
2022/05/23 05:02:29;;;;;;;3.70;3.10;;;;;;;14.10;68.04;96399.10;107305;1274;32270;-74
2022/05/23 05:05:00;;;;;;;4.70;3.50;;;;;;;16.46;66.10;96399.27;107257;1274;50202;-74
2022/05/23 05:07:31;;;;;;;4.30;3.30;;;;;;;18.93;63.58;96397.72;107144;1275;61787;-74
2022/05/23 05:10:03;;;;;;;6.50;3.90;;;;;;;21.29;59.83;96393.73;107253;1274;36202;-74
2022/05/23 05:12:34;;;;;;;5.30;3.00;;;;;;;23.29;55.57;96394.74;107206;1274;72907;-74
2022/05/23 05:15:08;;;;;;;5.20;2.90;;;;;;;24.15;49.13;96395.70;107303;1274;33160;-74
2022/05/23 05:17:38;;;;;;;4.40;2.90;;;;;;;23.88;46.84;96393.86;107280;1274;48310;-74
2022/05/23 05:20:13;;;;;;;2.60;2.20;;;;;;;24.10;42.64;96392.86;107286;1274;33138;-74
2022/05/23 05:22:44;;;;;;;3.10;1.90;;;;;;;22.95;39.35;96390.63;107259;1274;61127;-74
2022/05/23 05:25:18;;;;;;;3.40;2.20;;;;;;;22.49;39.47;96392.37;107197;1274;66861;-74
2022/05/23 05:27:49;;;;;;;4.50;2.60;;;;;;;22.46;39.02;96393.02;107348;1276;30920;-74
2022/05/23 05:30:23;;;;;;;4.00;2.60;;;;;;;22.33;38.75;96393.02;107282;1274;48267;-74
2022/05/23 05:32:59;;;;;;;3.40;2.50;;;;;;;22.43;38.39;96392.02;107245;1274;37575;-75
2022/05/23 05:35:35;;;;;;;2.60;2.40;;;;;;;22.82;38.91;96388.59;107317;1274;54198;-74
2022/05/23 05:38:13;;;;;;;3.80;2.70;;;;;;;23.89;38.69;96391.52;107318;1274;36936;-75
2022/05/23 05:40:48;;;;;;;3.90;2.80;;;;;;;24.36;35.74;96392.61;107305;1274;40194;-74
2022/05/23 05:43:24;;;;;;;3.50;2.50;;;;;;;24.36;35.69;96394.45;107353;1274;43949;-74
2022/05/23 05:46:02;;;;;;;3.30;2.30;;;;;;;24.51;33.02;96397.38;107328;1274;43905;-74
2022/05/23 05:48:36;;;;;;;3.10;2.40;;;;;;;23.87;34.04;96398.73;107242;1274;43460;-75
2022/05/23 05:51:07;;;;;;;3.80;2.30;;;;;;;24.36;35.17;96396.69;107316;1272;37366;-74
2022/05/23 05:53:38;;;;;;;2.90;2.60;;;;;;;25.78;34.40;96398.02;107261;1274;40021;-75
2022/05/23 05:56:10;;;;;;;2.60;2.30;;;;;;;25.91;32.96;96397.02;107346;1274;34512;-75
2022/05/23 05:58:41;;;;;;;3.30;2.70;;;;;;;25.65;32.75;96399.13;107269;1274;43650;-75
2022/05/23 06:01:12;;;;;;;2.60;2.20;;;;;;;26.46;33.03;96400.24;107321;1274;36345;-75
2022/05/23 06:03:43;;;;;;;3.80;2.60;;;;;;;26.82;31.84;96402.00;107351;1274;32437;-75
2022/05/23 06:11:51;;;;;;;3.70;2.10;;;;;;;28.46;29.63;96409.56;107390;1274;39628;-75
2022/05/23 06:14:22;;;;;;;4.70;2.70;;;;;;;27.39;28.93;96407.71;107306;1274;50560;-75
2022/05/23 06:16:53;;;;;;;2.40;2.20;;;;;;;27.35;29.32;96405.23;107288;1273;33458;-75
2022/05/23 06:19:25;;;;;;;3.00;2.00;;;;;;;27.16;29.11;96409.48;107229;1274;52482;-75
2022/05/23 06:21:56;;;;;;;4.00;1.90;;;;;;;28.38;30.04;96410.71;107330;1274;31372;-75
2022/05/23 06:24:26;;;;;;;3.60;2.00;;;;;;;28.71;27.54;96415.64;107286;1274;44563;-75
2022/05/23 06:26:57;;;;;;;2.80;1.50;;;;;;;29.30;28.78;96417.24;107271;1274;41100;-75
2022/05/23 06:29:30;;;;;;;2.10;1.70;;;;;;;30.75;28.05;96411.09;107270;1274;59474;-75
2022/05/23 06:32:01;;;;;;;1.80;1.50;;;;;;;31.84;26.80;96410.09;107306;1274;39826;-75
2022/05/23 06:34:32;;;;;;;2.80;1.60;;;;;;;31.78;25.38;96409.81;107357;1274;32850;-75
2022/05/23 06:37:04;;;;;;;1.70;1.20;;;;;;;31.29;25.27;96410.00;107264;1274;47267;-75
2022/05/23 06:39:34;;;;;;;2.70;1.50;;;;;;;30.94;24.14;96406.05;107306;1274;44052;-75
2022/05/23 06:42:06;;;;;;;1.70;1.30;;;;;;;31.47;25.20;96416.48;107306;1274;35850;-75
2022/05/23 06:44:37;;;;;;;2.10;1.50;;;;;;;32.02;23.43;96413.48;107266;1274;43528;-75
2022/05/23 06:47:09;;;;;;;2.00;1.30;;;;;;;31.93;23.32;96422.05;107299;1274;67746;-75
2022/05/23 06:49:40;;;;;;;3.80;1.60;;;;;;;32.11;23.73;96421.76;107227;1274;53786;-75
2022/05/23 06:52:11;;;;;;;2.30;1.60;;;;;;;32.43;22.46;96427.84;107314;1273;29460;-75
2022/05/23 06:54:42;;;;;;;1.90;1.40;;;;;;;32.29;22.94;96427.66;107314;1274;36253;-75
2022/05/23 06:57:14;;;;;;;2.40;1.50;;;;;;;32.25;20.88;96428.98;107221;1274;60439;-75
2022/05/23 06:59:47;;;;;;;2.10;1.60;;;;;;;32.22;22.80;96425.49;107268;1274;46204;-75
2022/05/23 07:02:18;;;;;;;2.00;1.40;;;;;;;34.23;22.78;96425.81;107358;1273;39288;-75
2022/05/23 07:13:15;;;;;;;1.30;1.20;;;;;;;31.22;22.16;96424.88;107280;1274;42657;-76
2022/05/23 07:15:48;;;;;;;1.90;1.00;;;;;;;32.84;20.97;96422.48;107284;1274;69618;-76
2022/05/23 07:18:22;;;;;;;1.60;1.40;;;;;;;32.76;19.97;96425.75;107345;1274;42455;-76
2022/05/23 07:20:53;;;;;;;1.70;1.30;;;;;;;33.28;21.56;96416.77;107241;1274;44947;-77
2022/05/23 07:23:24;;;;;;;3.00;1.60;;;;;;;34.85;20.65;96411.84;107299;1274;55387;-77
2022/05/23 07:25:55;;;;;;;1.40;0.90;;;;;;;34.97;19.55;96408.73;107287;1274;52997;-77
2022/05/23 07:28:26;;;;;;;2.60;1.30;;;;;;;35.50;19.54;96404.73;107353;1274;33278;-77
2022/05/23 07:30:57;;;;;;;2.20;1.10;;;;;;;34.62;17.95;96409.77;107281;1274;44545;-76
2022/05/23 07:33:31;;;;;;;1.60;1.10;;;;;;;33.47;18.32;96411.82;107290;1274;32156;-76
2022/05/23 07:36:03;;;;;;;4.00;0.90;;;;;;;32.85;18.56;96408.45;107200;1274;71517;-76
2022/05/23 07:38:36;;;;;;;1.40;1.30;;;;;;;32.31;18.41;96407.00;107244;1274;47911;-76
2022/05/23 07:41:08;;;;;;;1.60;1.20;;;;;;;32.27;19.05;96406.45;107297;1274;35737;-76
2022/05/23 07:43:42;;;;;;;1.40;1.20;;;;;;;31.43;18.49;96400.95;107260;1274;70227;-76
2022/05/23 07:46:15;;;;;;;1.90;1.40;;;;;;;30.89;19.45;96401.91;107349;1273;46687;-76
2022/05/23 07:48:48;;;;;;;2.40;1.10;;;;;;;30.91;20.03;96404.84;107279;1274;44684;-76
2022/05/23 08:09:10;;;;;;;5.50;1.40;;;;;;;31.09;21.90;96390.77;107138;1274;56983;-76
2022/05/23 08:11:46;;;;;;;1.20;1.10;;;;;;;33.19;19.49;96385.16;107209;1274;64860;-76
2022/05/23 08:14:17;;;;;;;1.70;1.60;;;;;;;32.30;18.10;96387.33;107233;1274;51098;-76
2022/05/23 08:16:48;;;;;;;1.40;1.30;;;;;;;32.11;19.92;96380.14;107335;1274;36796;-76
2022/05/23 08:19:20;;;;;;;1.10;1.00;;;;;;;34.12;20.09;96374.05;107345;1274;45137;-76
2022/05/23 08:21:54;;;;;;;1.60;1.50;;;;;;;34.96;18.31;96369.37;107340;1274;40470;-76
2022/05/23 08:24:25;;;;;;;1.60;1.30;;;;;;;34.32;19.32;96372.89;107294;1274;74996;-77
2022/05/23 08:26:58;;;;;;;2.50;1.40;;;;;;;35.83;19.27;96367.60;107193;1274;67255;-77
2022/05/23 08:29:31;;;;;;;1.90;1.30;;;;;;;36.00;18.23;96367.79;107296;1274;39541;-77
2022/05/23 08:32:03;;;;;;;1.50;1.30;;;;;;;35.61;19.19;96368.25;107299;1274;53649;-76
2022/05/23 08:34:34;;;;;;;1.50;1.20;;;;;;;36.43;18.98;96371.02;107309;1273;33875;-76
2022/05/23 08:37:06;;;;;;;2.70;1.10;;;;;;;37.85;18.06;96369.71;107229;1274;56259;-75
2022/05/23 08:39:38;;;;;;;2.50;1.00;;;;;;;38.87;17.19;96362.80;107284;1274;32594;-77
2022/05/23 08:42:29;;;;;;;1.40;0.80;;;;;;;39.32;16.75;96364.96;107238;1274;58772;-77
2022/05/23 08:45:14;;;;;;;2.00;1.00;;;;;;;39.98;16.28;96358.27;107292;1273;46435;-77
2022/05/23 08:47:56;;;;;;;0.90;0.90;;;;;;;40.60;16.12;96353.35;107304;1274;29157;-77
2022/05/23 08:50:37;;;;;;;1.30;0.90;;;;;;;39.91;15.55;96348.60;107264;1274;36393;-77
2022/05/23 08:53:15;;;;;;;1.10;0.80;;;;;;;39.43;15.79;96345.23;107309;1274;35951;-76
2022/05/23 08:55:52;;;;;;;4.20;1.40;;;;;;;38.94;15.83;96346.13;107287;1274;36700;-76
2022/05/23 08:58:30;;;;;;;3.50;2.20;;;;;;;38.25;16.47;96342.14;107210;1274;51896;-76
2022/05/23 09:01:07;;;;;;;1.80;1.00;;;;;;;35.60;17.05;96343.42;107335;1273;34505;-76
2022/05/23 09:03:42;;;;;;;1.90;1.10;;;;;;;32.79;18.33;96350.45;107267;1274;36327;-75
2022/05/23 09:06:22;;;;;;;3.40;2.50;;;;;;;30.77;19.93;96347.55;107294;1274;43551;-76
2022/05/23 09:08:57;;;;;;;2.60;1.30;;;;;;;28.39;22.28;96348.95;107274;1274;36945;-76
2022/05/23 09:11:34;;;;;;;3.50;2.00;;;;;;;27.39;24.16;96353.27;107232;1273;57376;-75
2022/05/23 09:14:07;;;;;;;3.40;2.90;;;;;;;25.78;24.91;96352.80;107230;1274;55676;-75
2022/05/23 09:16:41;;;;;;;9.50;7.80;;;;;;;23.44;28.69;96356.52;107289;1274;31531;-75
2022/05/23 09:19:20;;;;;;;10.60;9.60;;;;;;;22.10;31.02;96351.93;107285;1274;37687;-75
2022/05/23 09:24:46;;;;;;;5.20;4.00;;;;;;;22.04;32.81;96346.36;107275;1274;36278;-75
2022/05/23 09:27:21;;;;;;;3.70;3.00;;;;;;;21.71;32.13;96350.48;106304;1274;1237996;-75
2022/05/23 09:29:57;;;;;;;5.20;2.80;;;;;;;20.31;34.21;96358.54;107326;1274;38454;-75
2022/05/23 09:32:35;;;;;;;43.60;40.40;;;;;;;20.03;35.08;96357.96;107272;1274;45507;-75
2022/05/23 09:35:17;;;;;;;3.70;3.40;;;;;;;20.10;35.37;96360.45;107297;1274;31103;-75
2022/05/23 09:38:04;;;;;;;1.60;1.50;;;;;;;20.56;35.54;96360.76;107331;1276;40317;-75
2022/05/23 09:40:38;;;;;;;1.80;1.20;;;;;;;21.14;35.47;96357.09;107228;1274;43102;-75
2022/05/23 09:49:13;;;;;;;4.50;3.10;;;;;;;19.90;35.42;96360.30;107246;1274;52210;-75
2022/05/23 09:51:55;;;;;;;2.20;1.40;;;;;;;19.84;36.80;96361.85;107239;1276;51784;-74
2022/05/23 09:54:34;;;;;;;2.60;1.40;;;;;;;20.16;36.99;96360.36;107176;1274;68717;-74
2022/05/23 09:57:16;;;;;;;1.30;0.90;;;;;;;20.07;36.18;96360.36;107297;1274;42616;-74
2022/05/23 09:59:57;;;;;;;2.00;1.10;;;;;;;20.15;36.32;96351.19;107207;1274;51003;-75
2022/05/23 10:02:41;;;;;;;3.00;1.60;;;;;;;20.18;36.87;96350.81;107294;1274;42553;-74
2022/05/23 10:05:27;;;;;;;2.10;1.30;;;;;;;20.58;37.27;96351.42;107276;1273;37605;-74
2022/05/23 10:08:01;;;;;;;2.00;1.20;;;;;;;21.22;37.33;96350.11;107160;1274;76928;-74
2022/05/23 10:10:34;;;;;;;1.90;1.10;;;;;;;21.77;36.57;96346.67;107269;1273;34770;-75
2022/05/23 10:13:25;;;;;;;8.90;8.00;;;;;;;21.97;35.47;96345.05;107188;1274;92633;-74
2022/05/23 10:15:59;;;;;;;20.20;15.80;;;;;;;21.14;35.00;96339.70;107275;1274;39433;-75
2022/05/23 10:18:33;;;;;;;4.30;2.50;;;;;;;20.33;36.33;96340.80;107280;1274;46307;-74
2022/05/23 10:21:19;;;;;;;8.20;4.40;;;;;;;19.62;37.83;96343.55;107199;1274;66141;-74
2022/05/23 10:24:03;;;;;;;10.00;8.50;;;;;;;18.98;38.70;96345.94;107360;1274;31868;-74
2022/05/23 10:26:41;;;;;;;2.90;2.10;;;;;;;18.98;39.76;96344.07;107192;1274;60858;-74
2022/05/23 10:29:17;;;;;;;4.30;1.70;;;;;;;19.13;38.89;96345.20;107259;1273;60475;-74
2022/05/23 10:31:53;;;;;;;1.80;1.20;;;;;;;19.43;39.78;96342.40;107279;1274;46634;-74
2022/05/23 10:34:39;;;;;;;3.80;1.10;;;;;;;19.55;38.09;96342.50;107277;1274;36739;-75
2022/05/23 10:37:19;;;;;;;4.10;2.90;;;;;;;19.69;39.27;96345.15;107281;1274;32772;-74
2022/05/23 10:42:47;;;;;;;2.90;1.70;;;;;;;19.17;39.81;96349.39;107223;1274;47148;-75
2022/05/23 10:45:27;;;;;;;4.10;3.60;;;;;;;19.48;38.83;96343.77;107262;1274;49167;-74
2022/05/23 10:48:16;;;;;;;9.00;4.50;;;;;;;19.56;39.26;96344.39;107205;1276;42862;-75
2022/05/23 10:50:54;;;;;;;2.20;1.30;;;;;;;19.32;38.93;96346.52;107237;1274;58124;-74
2022/05/23 10:53:38;;;;;;;5.00;2.30;;;;;;;18.92;38.21;96350.29;107251;1274;58029;-75
2022/05/23 10:56:20;;;;;;;2.10;1.30;;;;;;;18.66;38.40;96341.95;107326;1274;41045;-74
2022/05/23 10:58:57;;;;;;;2.60;1.60;;;;;;;18.88;39.32;96334.36;107371;1274;37803;-74
2022/05/23 11:01:44;;;;;;;2.20;1.60;;;;;;;19.40;40.11;96334.95;107260;1274;55013;-73
2022/05/23 11:04:38;;;;;;;3.20;1.80;;;;;;;19.85;40.30;96330.98;107263;1274;37921;-74
2022/05/23 11:07:28;;;;;;;2.80;1.80;;;;;;;19.95;39.97;96325.83;107295;1273;32838;-75
2022/05/23 11:10:08;;;;;;;1.60;1.40;;;;;;;19.93;39.84;96328.48;107425;1274;33900;-75
2022/05/23 11:12:55;;;;;;;3.00;1.40;;;;;;;19.96;39.67;96337.86;107403;1273;31555;-75
2022/05/23 11:15:37;;;;;;;4.20;1.50;;;;;;;19.87;39.17;96333.70;107350;1274;34162;-75
2022/05/23 11:18:19;;;;;;;2.10;1.60;;;;;;;19.40;39.21;96332.64;107321;1273;40175;-75
2022/05/23 11:20:55;;;;;;;1.80;1.60;;;;;;;18.91;39.78;96334.50;107346;1274;30375;-75
2022/05/23 11:23:40;;;;;;;1.90;1.50;;;;;;;18.84;40.66;96333.23;107265;1274;33249;-75
2022/05/23 11:26:20;;;;;;;2.50;1.50;;;;;;;18.96;40.30;96329.14;107261;1274;34178;-74
2022/05/23 11:34:42;;;;;;;6.90;3.50;;;;;;;18.67;41.03;96326.19;107262;1274;64856;-74
2022/05/23 11:40:09;;;;;;;3.60;1.80;;;;;;;18.96;40.68;96317.02;107257;1273;61218;-74
2022/05/23 11:42:53;;;;;;;7.30;4.50;;;;;;;18.99;40.02;96316.47;107259;1276;39764;-74
2022/05/23 11:48:54;;;;;;;2.80;2.20;;;;;;;18.24;39.93;96315.36;106992;1279;36041;-74
2022/05/23 11:51:38;;;;;;;5.90;3.20;;;;;;;17.77;40.64;96310.50;107021;1279;34211;-74
2022/05/23 11:54:13;;;;;;;4.00;1.50;;;;;;;17.30;41.87;96309.39;107091;1274;55942;-74
2022/05/23 11:57:29;;;;;;;2.30;1.50;;;;;;;17.65;43.23;96305.80;107325;1274;28944;-74
2022/05/23 12:00:32;;;;;;;5.70;2.70;;;;;;;18.25;41.97;96308.41;107265;1273;55510;-74
2022/05/23 12:03:15;;;;;;;3.70;1.30;;;;;;;17.97;40.96;96300.98;107251;1274;35303;-74
2022/05/23 12:05:46;;;;;;;1.60;1.20;;;;;;;17.87;41.11;96297.59;107284;1274;29932;-74
2022/05/23 12:08:37;;;;;;;4.40;1.50;;;;;;;17.96;40.92;96298.20;107262;1274;41344;-74
2022/05/23 12:11:23;;;;;;;4.70;1.90;;;;;;;17.59;41.94;96289.51;107225;1274;59723;-73
2022/05/23 12:13:58;;;;;;;1.30;1.00;;;;;;;17.66;42.18;96290.37;107290;1274;32543;-74
2022/05/23 12:17:07;;;;;;;2.50;1.30;;;;;;;17.67;41.92;96285.66;107256;1274;46523;-73
2022/05/23 12:19:55;;;;;;;3.20;1.50;;;;;;;17.97;42.10;96288.10;107274;1274;36429;-74
2022/05/23 12:22:37;;;;;;;1.90;1.20;;;;;;;18.38;42.52;96293.27;107298;1274;31593;-74
2022/05/23 12:25:27;;;;;;;2.10;1.40;;;;;;;18.81;42.09;96292.39;107249;1274;38072;-74
2022/05/23 12:28:14;;;;;;;;;;;;;;;19.03;41.26;96292.48;107314;1274;36424;-74
2022/05/23 12:31:01;;;;;;;2.80;1.40;;;;;;;19.16;41.54;96283.04;107242;1276;33429;-74
2022/05/23 12:33:32;;;;;;;2.90;1.20;;;;;;;19.30;41.43;96282.05;107278;1275;44525;-74
2022/05/23 12:36:09;;;;;;;2.90;1.60;;;;;;;19.28;40.94;96277.98;107221;1274;46116;-73
2022/05/23 12:38:53;;;;;;;2.40;1.60;;;;;;;19.23;41.25;96276.16;107216;1274;52573;-74
2022/05/23 12:41:41;;;;;;;2.30;1.50;;;;;;;19.04;41.06;96269.73;107286;1274;34828;-74
2022/05/23 12:44:47;;;;;;;1.90;1.60;;;;;;;18.93;41.59;96265.81;107280;1274;36301;-74
2022/05/23 12:47:35;;;;;;;4.70;1.60;;;;;;;19.10;42.01;96266.36;107233;1276;43855;-74
2022/05/23 12:50:19;;;;;;;1.50;1.30;;;;;;;19.12;40.68;96267.02;107188;1274;50689;-74
2022/05/23 12:53:13;;;;;;;3.60;1.30;;;;;;;18.87;41.44;96260.50;107386;1274;32759;-73
2022/05/23 12:55:56;;;;;;;1.40;1.30;;;;;;;19.11;41.53;96254.57;107110;1276;53065;-74
2022/05/23 12:58:41;;;;;;;2.70;1.20;;;;;;;19.43;41.28;96244.48;107306;1274;33786;-74
2022/05/23 13:01:18;;;;;;;3.70;1.40;;;;;;;19.26;40.62;96242.91;107230;1274;48232;-74
2022/05/23 13:03:57;;;;;;;4.60;1.70;;;;;;;18.85;41.60;96237.03;107265;1274;37531;-74
2022/05/23 13:06:34;;;;;;;3.60;1.50;;;;;;;18.90;41.96;96239.95;107274;1273;37413;-74
2022/05/23 13:09:09;;;;;;;4.20;1.50;;;;;;;19.09;42.27;96237.39;107284;1274;36393;-74
2022/05/23 13:11:44;;;;;;;5.10;1.50;;;;;;;18.94;41.52;96233.52;107305;1274;39522;-74
2022/05/23 13:14:16;;;;;;;2.40;1.70;;;;;;;18.70;42.12;96235.35;107244;1274;46719;-74
2022/05/23 13:16:57;;;;;;;2.40;1.20;;;;;;;18.59;41.85;96230.88;107211;1275;51235;-74
2022/05/23 13:22:24;;;;;;;1.90;1.20;;;;;;;18.89;42.85;96213.97;107194;1276;59182;-74
2022/05/23 13:25:00;;;;;;;1.70;1.20;;;;;;;19.15;41.49;96211.00;107251;1274;41010;-74